• Join FlightAware (Why Join?)
  • Login
  • US Flag 
03:46AM EDT


 

Airport Tracker/Info


-or-


 

Live Flight TrackerFlight Track Log ✈ SWA3764 ✈ 01-Dec-2013 ✈ KMSY - KDAL

Flight Track Log - Related Links

Times and Time Zones

All times are in EST time to prevent confusion due to time zone crossing. See the SWA3764 flight status page for this flight to view local times or setup timezone preferences in your user account.

Time Position Orientation Groundspeed Altitude Reporting Facility
EST Latitude Longitude Course Direction KTS MPH feet Rate Location/Type
10:39PM 30.0194 -90.3097 317° Northwest 189 217 1,600  Level Houston Center
10:40PM 30.0339 -90.3219 324° Northwest 198 228 2,400 2,400 Climbing Houston Center
10:41PM 30.0839 -90.3647 323° Northwest 209 241 5,000 3,120 Climbing Houston Center
10:42PM 30.1467 -90.4147 325° Northwest 246 283 8,800 2,880 Climbing Houston Center
10:43PM 30.1972 -90.4786 312° West 266 306 11,000 2,040 Climbing Houston Center
10:44PM 30.2636 -90.5589 314° West 339 390 13,000 2,160 Climbing Houston Center
10:45PM 30.3331 -90.6411 314° West 354 407 15,500 2,580 Climbing Houston Center
10:46PM 30.4219 -90.7417 316° Northwest 369 425 18,300 2,640 Climbing Houston Center
10:47PM 30.4817 -90.8406 305° West 374 430 20,900 2,940 Climbing Houston Center
10:48PM 30.5364 -90.9267 306° West 330 380 24,400 2,040 Climbing Houston Center
10:49PM 30.5836 -91.0211 300° West 339 390 25,100 1,620 Climbing Houston Center
10:50PM 30.6261 -91.1256 295° West 358 412 27,700 2,340 Climbing Houston Center
10:51PM 30.6636 -91.2153 296° West 313 360 29,900 1,260 Climbing Houston Center
10:52PM 30.7036 -91.3106 296° West 326 375 30,300 780 Climbing Houston Center
10:53PM 30.7511 -91.4172 297° West 351 404 31,500 1,800 Climbing Houston Center
10:54PM 30.7928 -91.5147 296° West 338 389 34,000 1,920 Climbing Houston Center
10:55PM 30.8308 -91.6042 296° West 311 358 35,500 960 Climbing Houston Center
10:56PM 30.8694 -91.6947 296° West 312 359 36,000 240 Climbing Houston Center
10:57PM 30.9083 -91.7864 296° West 316 364 36,000  Level Houston Center
10:58PM 30.9467 -91.8778 296° West 314 361 36,000  Level Houston Center
10:59PM 30.9853 -91.9683 296° West 314 361 36,000  Level Houston Center
11:00PM 31.0236 -92.0622 295° West 309 356 36,000  Level Houston Center
11:01PM 31.0597 -92.1533 295° West 311 358 36,000  Level Houston Center
11:02PM 31.0947 -92.2444 294° West 309 356 36,000  Level Houston Center
11:03PM 31.1367 -92.3539 294° West 308 354 36,000  Level Houston Center
11:04PM 31.1700 -92.4447 293° West 307 353 36,000  Level Houston Center
11:05PM 31.2050 -92.5361 294° West 309 356 36,000  Level Houston Center
11:06PM 31.2392 -92.6278 294° West 309 356 36,000  Level Houston Center
11:07PM 31.2742 -92.7200 294° West 309 356 36,000  Level Houston Center
11:08PM 31.3086 -92.8103 294° West 306 352 36,000  Level Houston Center
11:09PM 31.3422 -92.9017 293° West 306 352 36,000  Level Houston Center
11:10PM 31.3769 -92.9919 294° West 305 351 36,000  Level Houston Center
11:11PM 31.4106 -93.0839 293° West 308 354 36,000  Level Houston Center
11:12PM 31.4442 -93.1750 293° West 307 353 36,000  Level Houston Center
11:13PM 31.4842 -93.2847 293° West 306 352 36,000  Level Houston Center
11:14PM 31.5144 -93.3656 294° West 307 353 36,000  Level Houston Center
11:15PM 31.5486 -93.4564 294° West 306 352 36,000  Level Houston Center
11:16PM 31.5822 -93.5478 293° West 306 352 36,000  Level Houston Center
11:17PM 31.6203 -93.6492 294° West 306 352 36,000  Level Houston Center
11:18PM 31.6528 -93.7408 293° West 306 352 36,000  Level Houston Center
11:19PM 31.6858 -93.8308 293° West 303 349 36,000  Level Houston Center
11:20PM 31.7186 -93.9214 293° West 302 348 36,000  Level Houston Center
11:21PM 31.7511 -94.0119 293° West 302 348 36,000  Level Houston Center
11:22PM 31.7847 -94.1047 293° West 306 352 36,000  Level Houston Center
11:23PM 31.8206 -94.2033 293° West 302 348 36,000  Level Houston Center
11:24PM 31.8569 -94.3056 293° West 306 352 36,000  Level Houston Center
11:25PM 31.8906 -94.3972 293° West 306 352 36,000  Level Houston Center
11:26PM 31.9044 -94.4344 294° West 308 354 36,000  Level Fort Worth Center
11:27PM 31.9375 -94.5267 293° West 308 354 36,000  Level Fort Worth Center
11:28PM 31.9694 -94.6197 292° West 308 354 36,000  Level Fort Worth Center
11:29PM 32.0028 -94.7119 293° West 307 353 36,000  Level Fort Worth Center
11:30PM 32.0417 -94.8233 292° West 309 356 36,000  Level Fort Worth Center
11:31PM 32.0739 -94.9161 292° West 308 354 36,000  Level Fort Worth Center
11:32PM 32.1061 -95.0069 293° West 301 346 36,000 -120 Level Fort Worth Center
11:33PM 32.1381 -95.0972 293° West 299 344 35,800 -600 Descending Fort Worth Center
11:34PM 32.1711 -95.1906 293° West 306 352 34,800 -1,140 Descending Fort Worth Center
11:35PM 32.2025 -95.2847 292° West 309 356 33,500 -2,220 Descending Fort Worth Center
11:36PM 32.2381 -95.3833 293° West 315 362 30,300 -3,180 Descending Fort Worth Center
11:37PM 32.2747 -95.4917 292° West 351 404 27,100 -2,940 Descending Fort Worth Center
11:38PM 32.3131 -95.6025 292° West 364 419 24,400 -2,640 Descending Fort Worth Center
11:39PM 32.3506 -95.7111 292° West 357 411 21,800 -2,580 Descending Fort Worth Center
11:40PM 32.3861 -95.8189 291° West 355 409 19,200 -2,760 Descending Fort Worth Center
11:41PM 32.4297 -95.9419 293° West 376 433 16,300 -2,880 Descending Fort Worth Center
11:42PM 32.4700 -96.0611 292° West 365 420 13,500 -2,580 Descending Fort Worth Center
11:43PM 32.5056 -96.1644 292° West 344 396 11,100 -1,680 Descending Fort Worth Center
11:44PM 32.5369 -96.2586 292° West 313 360 10,200 -600 Descending Fort Worth Center
11:45PM 32.5692 -96.3436 294° West 289 333 10,000 -180 Descending Fort Worth Center
11:46PM 32.6169 -96.4258 305° West 305 351 9,900 -480 Descending Fort Worth Center
11:47PM 32.6578 -96.4969 304° West 262 302 9,100 -900 Descending Fort Worth Center
11:48PM 32.7089 -96.5550 316° Northwest 259 298 8,100 -1,080 Descending Fort Worth Center
11:49PM 32.7683 -96.6083 323° Northwest 251 289 7,000 -1,560 Descending Fort Worth Center
11:50PM 32.8244 -96.6606 322° Northwest 256 295 5,000 -1,740 Descending Fort Worth Center
11:51PM 32.8822 -96.7133 323° Northwest 259 298 3,600 -1,320 Descending Fort Worth Center
11:52PM 32.9167 -96.7333 334° Northwest 250 288 3,000 -600 Descending Dallas / Fort Worth TRACON
11:53PM 32.9333 -96.8000 287° West 220 253 2,800 -540 Descending Dallas / Fort Worth TRACON
11:54PM 32.9167 -96.8667 253° West 176 203 2,000 -720 Descending Dallas / Fort Worth TRACON
11:55PM 32.8833 -96.8833 203° Southwest 143 165 1,300 -600 Descending Dallas / Fort Worth TRACON
11:56PM 32.8311 -96.8383 144° Southeast 151 174 500 -540 Descending Fort Worth Center
11:58PM 32.8333 -96.8500 207° Southwest  Level FlightAware Approximate